Aérodrome :
LOGIN :

S'inscrire | Disclaimer

   EN    FR    IT 

 










Légende :    VFR   VFR Marginal   IFR   IFR Intensif   IFR Très Intensif
Visi : 
Plafond : 
>= 8 km
>= 3000ft
5 à 8 km
1000 à 3000 ft
1500m à 5 km
500 à 1000 ft
800 à 1500m
200 à 500 ft
< 800m
< 200 ft
Symboles :   Orages  Brouillard  Fortes neiges  Fortes précipitations  Vent > 20 kt
SIGMETs :   Divers  Orages  Givrage  Turbulence  Onde Orograph.  Cendres Volcan.






- Altitude de l'aérodrome : 390 ft
- Code IATA : NQY


EGHQ - Newquay

DERNIER METAR :
  • 250550Z AUTO 10006KT 9999 OVC016/// 06/04 Q1017

METARs EXPIRÉS :
  • 250520Z AUTO 10008KT 9999 BKN019/// 06/04 Q1017
  • 250450Z AUTO 10007KT 9999 BKN013/// 06/04 Q1017
  • 250420Z AUTO 08005KT 9999 BKN014/// 06/04 Q1017
  • 250350Z AUTO 10005KT 9999 BKN016/// 05/04 Q1018
  • 250320Z AUTO 10007KT 9999 BKN017/// 05/04 Q1018

TAF TAF EGHQ
Valide du 25 à 06h jusqu'au 25 à 15h UTC


250500Z 2506/2515 10008KT 9999 BKN012
BECMG 2506/2509 3000 BR BKN005
TEMPO 2509/2515 BKN003
PROB30
TEMPO 2510/2515 1200 DZ BKN001



MET'MAP, la Météo Aéronautique d'un coup d'oeil ! - Copyright ORBIFLY Décembre 2007 - Disclaimer

ORBIFLY MET'MAP TEAM :

Programmation & Développement : Alexandra Zaïnal
Sur une idée originale de : Baudouin d'Aumeries
Assistance à la programmation : Marc-Olivier Méhu
Soutien technique & logistique : Manuel Goepfert

Contact : metmap@orbifly.com




SOURCES & CREDITS :

   NOAA